Albion, Nebraska
Current Conditions -  °F | °C
As of 10:55 AM on Friday 24 Oct 2014 (Local Time) from KBVN Reporting Station
Clear Clear  
Wind Chill: 14°   Ceiling: Unl
Heat Index: 14°   Visibility: 7mi
Dew Point: 12°   Wind: 5mph
Humidity: 84%   Direction: 300°WNW
Pressure: 29.95"   Gusts: NA
Location:  41.69°N, 98°W
Report Text: KBVN 241555Z AUTO 30004KT 7SM CLR 14/12 A2995 RMK AO2 T01440118
Loading
Personal Weather Stations






























Interactive Weather Map
Tropical Storm Tracking
New forecast layout! Learn more

10-Day Weather Forecast

Advertisements
Track Severe Weather on mobile